createdAt,value
2018-02-11T00:00:41.570Z,65.60
2018-02-11T00:03:09.009Z,65.40
2018-02-11T00:05:36.504Z,65.00
2018-02-11T00:08:05.073Z,65.10
2018-02-11T00:10:33.269Z,65.10
2018-02-11T00:13:02.304Z,64.80
2018-02-11T00:15:29.736Z,64.70
2018-02-11T00:17:57.372Z,65.00
2018-02-11T00:20:26.355Z,64.70
2018-02-11T00:22:53.816Z,64.70
2018-02-11T00:25:21.298Z,66.40
2018-02-11T00:27:49.256Z,65.30
2018-02-11T00:30:17.880Z,65.10
2018-02-11T00:32:45.781Z,65.10
2018-02-11T00:35:14.745Z,63.70
2018-02-11T00:37:47.928Z,63.70
2018-02-11T00:40:16.605Z,64.00
2018-02-11T00:42:44.053Z,64.00
2018-02-11T00:45:12.482Z,64.20
2018-02-11T00:47:39.930Z,64.00
2018-02-11T00:50:07.572Z,64.20
2018-02-11T00:52:35.040Z,64.30
2018-02-11T00:55:02.765Z,64.70
2018-02-11T00:57:30.336Z,64.40
2018-02-11T00:59:57.817Z,64.80
2018-02-11T01:02:25.601Z,64.90
2018-02-11T01:04:53.057Z,64.80
2018-02-11T01:07:20.521Z,64.50
2018-02-11T01:09:48.221Z,64.10
2018-02-11T01:12:16.037Z,64.20
2018-02-11T01:14:44.048Z,64.40
2018-02-11T01:17:11.627Z,64.60
2018-02-11T01:19:39.215Z,64.40
2018-02-11T01:22:06.708Z,64.40
2018-02-11T01:24:35.323Z,64.40
2018-02-11T01:27:02.768Z,64.40
2018-02-11T01:29:30.528Z,64.50
2018-02-11T01:31:58.543Z,64.60
2018-02-11T01:34:26.201Z,65.00
2018-02-11T01:36:53.657Z,65.00
2018-02-11T01:39:21.451Z,65.20
2018-02-11T01:41:49.204Z,65.90
2018-02-11T01:44:16.961Z,66.40
2018-02-11T01:46:50.756Z,66.60
2018-02-11T01:49:18.186Z,66.80
2018-02-11T01:51:45.996Z,67.00
2018-02-11T01:54:13.848Z,67.60
2018-02-11T01:56:41.298Z,67.80
2018-02-11T01:59:08.839Z,68.50
2018-02-11T02:01:37.037Z,70.20
2018-02-11T02:04:04.499Z,70.20
2018-02-11T02:06:32.429Z,70.70
2018-02-11T02:09:00.357Z,70.90
2018-02-11T02:11:29.113Z,72.00
2018-02-11T02:13:56.974Z,71.90
2018-02-11T02:16:24.423Z,72.60
2018-02-11T02:18:51.882Z,73.10
2018-02-11T02:21:20.004Z,73.40
2018-02-11T02:23:48.662Z,74.30
2018-02-11T02:26:16.264Z,74.30
2018-02-11T02:28:44.173Z,75.40
2018-02-11T02:31:12.156Z,75.00
2018-02-11T02:33:39.605Z,75.10
2018-02-11T02:36:07.094Z,75.50
2018-02-11T02:38:35.328Z,76.00
2018-02-11T02:41:02.769Z,75.80
2018-02-11T02:43:30.559Z,75.90
2018-02-11T02:45:58.025Z,75.80
2018-02-11T02:48:25.781Z,76.10
2018-02-11T02:50:53.985Z,76.10
2018-02-11T02:53:22.739Z,76.30
2018-02-11T02:55:55.625Z,76.30
2018-02-11T02:58:23.409Z,76.70
2018-02-11T03:00:51.648Z,77.10
2018-02-11T03:03:19.265Z,76.60
2018-02-11T03:05:46.748Z,76.60
2018-02-11T03:08:14.741Z,76.90
2018-02-11T03:10:42.216Z,77.00
2018-02-11T03:13:10.069Z,77.10
2018-02-11T03:15:37.963Z,77.40
2018-02-11T03:18:06.230Z,77.50
2018-02-11T03:20:34.453Z,77.40
2018-02-11T03:23:01.987Z,77.40
2018-02-11T03:25:29.831Z,77.40
2018-02-11T03:27:58.902Z,77.50
2018-02-11T03:30:26.770Z,77.50
2018-02-11T03:32:54.245Z,77.40
2018-02-11T03:35:22.472Z,77.20
2018-02-11T03:37:49.931Z,77.10
2018-02-11T03:40:17.416Z,77.40
2018-02-11T03:42:44.968Z,77.90
2018-02-11T03:45:14.641Z,77.80
2018-02-11T03:47:42.351Z,78.10
2018-02-11T03:50:09.809Z,78.00
2018-02-11T03:52:37.280Z,77.90
2018-02-11T03:55:06.259Z,78.00
2018-02-11T03:57:34.317Z,77.90
2018-02-11T04:00:02.380Z,78.10
2018-02-11T04:02:31.159Z,78.10
2018-02-11T04:04:58.599Z,78.20
2018-02-11T04:07:27.003Z,78.30
2018-02-11T04:09:54.980Z,78.30
2018-02-11T04:12:23.242Z,78.50
2018-02-11T04:14:50.809Z,78.50
2018-02-11T04:17:18.255Z,78.40
2018-02-11T04:19:46.033Z,78.10
2018-02-11T04:22:13.477Z,78.10
2018-02-11T04:24:41.050Z,77.90
2018-02-11T04:27:08.809Z,77.90
2018-02-11T04:29:36.687Z,77.90
2018-02-11T04:32:08.706Z,77.90
2018-02-11T04:34:36.578Z,77.90
2018-02-11T04:37:04.015Z,78.30
2018-02-11T04:39:31.675Z,78.60
2018-02-11T04:41:59.376Z,78.70
2018-02-11T04:44:27.194Z,79.60
2018-02-11T04:46:55.476Z,79.60
2018-02-11T04:49:23.508Z,79.60
2018-02-11T04:51:51.668Z,79.70
2018-02-11T04:54:19.544Z,79.90
2018-02-11T04:56:47.917Z,80.20
2018-02-11T04:59:15.378Z,80.20
2018-02-11T05:01:42.820Z,80.50
2018-02-11T05:04:10.488Z,80.70
2018-02-11T05:06:37.933Z,81.00
2018-02-11T05:09:05.916Z,81.00
2018-02-11T05:11:34.702Z,81.10
2018-02-11T05:14:02.256Z,81.40
2018-02-11T05:16:29.704Z,81.60
2018-02-11T05:18:57.179Z,81.80
2018-02-11T05:21:25.248Z,82.00
2018-02-11T05:23:53.109Z,82.20
2018-02-11T05:26:20.567Z,82.10
2018-02-11T05:28:48.532Z,82.10
2018-02-11T05:31:17.220Z,82.60
2018-02-11T05:33:44.673Z,81.90
2018-02-11T05:36:12.744Z,81.90
2018-02-11T05:38:40.204Z,81.90
2018-02-11T05:41:07.660Z,81.90
2018-02-11T05:43:35.590Z,82.00
2018-02-11T05:46:03.049Z,82.20
2018-02-11T05:48:30.507Z,82.40
2018-02-11T05:50:57.939Z,82.40
2018-02-11T05:53:25.861Z,82.50
2018-02-11T05:55:53.364Z,82.20
2018-02-11T05:58:21.598Z,82.10
2018-02-11T06:00:49.032Z,82.40
2018-02-11T06:03:16.605Z,82.60
2018-02-11T06:05:44.473Z,82.80
2018-02-11T06:08:12.164Z,83.00
2018-02-11T06:10:40.882Z,83.70
2018-02-11T06:13:10.016Z,83.50
2018-02-11T06:15:37.472Z,83.70
2018-02-11T06:18:05.234Z,83.90
2018-02-11T06:20:32.660Z,84.10
2018-02-11T06:23:00.108Z,84.20
2018-02-11T06:25:27.920Z,84.30
2018-02-11T06:27:55.364Z,84.60
2018-02-11T06:30:23.160Z,84.70
2018-02-11T06:32:50.994Z,85.00
2018-02-11T06:35:18.426Z,85.10
2018-02-11T06:37:45.917Z,85.10
2018-02-11T06:40:13.366Z,85.20
2018-02-11T06:42:40.839Z,85.30
2018-02-11T06:45:08.608Z,85.30
2018-02-11T06:47:36.054Z,85.40
2018-02-11T06:50:03.526Z,85.00
2018-02-11T06:52:31.952Z,85.90
2018-02-11T06:54:59.855Z,85.90
2018-02-11T06:57:27.295Z,86.10
2018-02-11T06:59:55.265Z,86.10
2018-02-11T07:02:22.720Z,86.10
2018-02-11T07:04:50.229Z,86.00
2018-02-11T07:07:17.680Z,85.80
2018-02-11T07:09:46.263Z,85.90
2018-02-11T07:12:15.016Z,86.10
2018-02-11T07:14:42.485Z,86.10
2018-02-11T07:17:09.955Z,86.00
2018-02-11T07:19:37.735Z,86.20
2018-02-11T07:22:05.937Z,86.10
2018-02-11T07:24:33.428Z,86.10
2018-02-11T07:27:01.331Z,86.00
2018-02-11T07:29:30.276Z,86.10
2018-02-11T07:31:57.931Z,86.10
2018-02-11T07:34:25.393Z,86.30
2018-02-11T07:36:52.843Z,86.40
2018-02-11T07:39:20.336Z,86.40
2018-02-11T07:41:47.793Z,86.60
2018-02-11T07:44:15.550Z,86.40
2018-02-11T07:46:43.521Z,86.80
2018-02-11T07:49:10.991Z,86.80
2018-02-11T07:51:39.031Z,87.00
2018-02-11T07:54:06.800Z,87.40
2018-02-11T07:56:34.249Z,87.10
2018-02-11T07:59:03.003Z,87.30
2018-02-11T08:01:30.876Z,87.00
2018-02-11T08:03:58.406Z,87.00
2018-02-11T08:06:25.860Z,87.00
2018-02-11T08:08:55.110Z,87.00
2018-02-11T08:11:22.990Z,87.00
2018-02-11T08:13:50.532Z,86.70
2018-02-11T08:16:17.997Z,86.80
2018-02-11T08:18:45.459Z,86.70
2018-02-11T08:21:12.949Z,86.70
2018-02-11T08:23:40.975Z,86.80
2018-02-11T08:26:09.152Z,86.70
2018-02-11T08:28:37.022Z,86.80
2018-02-11T08:31:05.084Z,86.90
2018-02-11T08:33:32.881Z,87.00
2018-02-11T08:36:00.316Z,87.20
2018-02-11T08:38:28.284Z,87.40
2018-02-11T08:40:55.803Z,87.50
2018-02-11T08:43:24.217Z,87.50
2018-02-11T08:45:51.690Z,87.70
2018-02-11T08:48:19.902Z,88.10
2018-02-11T08:50:47.707Z,87.50
2018-02-11T08:53:16.264Z,87.50
2018-02-11T08:55:43.708Z,87.70
2018-02-11T08:58:11.275Z,87.90
2018-02-11T09:00:38.729Z,87.80
2018-02-11T09:03:06.767Z,87.60
2018-02-11T09:05:35.053Z,87.80
2018-02-11T09:08:03.801Z,88.00
2018-02-11T09:10:31.870Z,88.00
2018-02-11T09:12:59.335Z,87.90
2018-02-11T09:15:26.786Z,87.60
2018-02-11T09:17:54.259Z,87.80
2018-02-11T09:20:22.574Z,87.60
2018-02-11T09:22:50.639Z,87.50
2018-02-11T09:25:18.091Z,87.50
2018-02-11T09:27:45.770Z,87.50
2018-02-11T09:30:14.464Z,87.50
2018-02-11T09:32:42.364Z,87.60
2018-02-11T09:35:09.808Z,87.60
2018-02-11T09:37:37.340Z,88.20
2018-02-11T09:40:04.906Z,87.50
2018-02-11T09:42:32.345Z,87.50
2018-02-11T09:45:00.053Z,87.40
2018-02-11T09:47:27.610Z,87.50
2018-02-11T09:49:55.157Z,87.40
2018-02-11T09:52:22.625Z,87.30
2018-02-11T09:54:50.292Z,87.50
2018-02-11T09:57:18.166Z,87.70
2018-02-11T09:59:45.620Z,87.70
2018-02-11T10:02:13.071Z,87.70
2018-02-11T10:04:41.323Z,88.00
2018-02-11T10:07:08.796Z,88.00
2018-02-11T10:09:36.657Z,88.00
2018-02-11T10:12:04.104Z,88.00
2018-02-11T10:14:31.552Z,87.90
2018-02-11T10:16:59.024Z,87.70
2018-02-11T10:19:26.997Z,87.50
2018-02-11T10:21:54.453Z,87.30
2018-02-11T10:24:21.908Z,87.40
2018-02-11T10:26:49.390Z,87.40
2018-02-11T10:29:18.160Z,87.80
2018-02-11T10:31:45.969Z,87.10
2018-02-11T10:34:13.444Z,87.30
2018-02-11T10:36:41.141Z,87.10
2018-02-11T10:39:09.047Z,87.00
2018-02-11T10:41:37.357Z,87.10
2018-02-11T10:44:04.946Z,87.00
2018-02-11T10:46:33.147Z,87.30
2018-02-11T10:49:01.911Z,87.30
2018-02-11T10:51:29.343Z,87.20
2018-02-11T10:53:57.251Z,87.20
2018-02-11T10:56:25.464Z,87.50
2018-02-11T10:58:53.052Z,87.50
2018-02-11T11:01:20.498Z,87.40
2018-02-11T11:03:48.188Z,87.40
2018-02-11T11:06:15.629Z,87.40
2018-02-11T11:08:44.441Z,87.20
2018-02-11T11:11:12.391Z,87.30
2018-02-11T11:13:40.564Z,87.50
2018-02-11T11:16:08.004Z,87.40
2018-02-11T11:18:35.475Z,86.90
2018-02-11T11:21:02.928Z,86.90
2018-02-11T11:23:31.154Z,86.70
2018-02-11T11:25:59.636Z,84.30
2018-02-11T11:28:28.586Z,83.60
2018-02-11T11:30:58.350Z,83.60
2018-02-11T11:33:25.812Z,82.80
2018-02-11T11:35:53.712Z,82.00
2018-02-11T11:38:21.245Z,80.80
2018-02-11T11:40:48.679Z,81.00
2018-02-11T11:43:18.001Z,80.10
2018-02-11T11:45:45.551Z,80.10
2018-02-11T11:48:13.023Z,80.60
2018-02-11T11:50:40.473Z,80.30
2018-02-11T11:53:08.582Z,80.50
2018-02-11T11:55:36.038Z,80.20
2018-02-11T11:58:03.550Z,78.60
2018-02-11T12:00:31.004Z,77.30
2018-02-11T12:02:58.453Z,76.90
2018-02-11T12:05:26.850Z,72.50
2018-02-11T12:07:54.276Z,71.80
2018-02-11T12:10:23.647Z,71.10
2018-02-11T12:12:51.165Z,71.10
2018-02-11T12:15:18.660Z,71.10
2018-02-11T12:17:46.158Z,71.40
2018-02-11T12:20:13.770Z,71.40
2018-02-11T12:22:41.235Z,70.60
2018-02-11T12:25:08.709Z,70.30
2018-02-11T12:27:36.616Z,71.00
2018-02-11T12:30:05.791Z,72.20
2018-02-11T12:32:34.040Z,69.90
2018-02-11T12:35:01.525Z,69.70
2018-02-11T12:37:28.982Z,69.90
2018-02-11T12:39:57.266Z,69.20
2018-02-11T12:42:24.721Z,69.20
2018-02-11T12:44:53.069Z,67.50
2018-02-11T12:47:21.314Z,67.90
2018-02-11T12:49:48.776Z,67.20
2018-02-11T12:52:16.225Z,66.50
2018-02-11T12:54:44.822Z,64.40
2018-02-11T12:57:12.252Z,64.40
2018-02-11T12:59:39.701Z,64.60
2018-02-11T13:02:07.191Z,64.30
2018-02-11T13:04:34.626Z,65.30
2018-02-11T13:07:02.726Z,64.20
2018-02-11T13:09:30.577Z,63.60
2018-02-11T13:11:58.081Z,64.10
2018-02-11T13:14:25.555Z,64.90
2018-02-11T13:16:52.997Z,66.10
2018-02-11T13:19:20.830Z,67.20
2018-02-11T13:21:48.300Z,67.00
2018-02-11T13:24:16.960Z,67.70
2018-02-11T13:26:44.421Z,67.60
2018-02-11T13:29:12.281Z,67.40
2018-02-11T13:31:40.018Z,68.20
2018-02-11T13:34:07.473Z,69.40
2018-02-11T13:36:34.958Z,70.80
2018-02-11T13:39:02.430Z,71.80
2018-02-11T13:41:29.885Z,72.40
2018-02-11T13:43:59.477Z,73.00
2018-02-11T13:46:26.984Z,72.90
2018-02-11T13:48:54.381Z,72.40
2018-02-11T13:51:21.853Z,72.80
2018-02-11T13:53:49.824Z,72.80
2018-02-11T13:56:17.278Z,71.70
2018-02-11T13:58:44.708Z,71.30
2018-02-11T14:01:12.392Z,71.40
2018-02-11T14:03:40.455Z,71.00
2018-02-11T14:06:08.252Z,71.30
2018-02-11T14:08:36.464Z,71.50
2018-02-11T14:11:05.198Z,71.20
2018-02-11T14:13:32.633Z,71.90
2018-02-11T14:16:00.326Z,71.40
2018-02-11T14:18:27.768Z,72.00
2018-02-11T14:20:55.197Z,72.20
2018-02-11T14:23:23.282Z,72.90
2018-02-11T14:25:50.912Z,72.30
2018-02-11T14:28:18.918Z,72.10
2018-02-11T14:30:46.888Z,71.30
2018-02-11T14:33:14.411Z,70.90
2018-02-11T14:35:41.884Z,70.30
2018-02-11T14:38:09.556Z,70.50
2018-02-11T14:40:37.049Z,71.00
2018-02-11T14:43:05.557Z,70.20
2018-02-11T14:45:34.367Z,70.10
2018-02-11T14:48:01.822Z,70.10
2018-02-11T14:50:29.595Z,70.00
2018-02-11T14:52:59.213Z,70.60
2018-02-11T14:55:26.660Z,70.10
2018-02-11T14:57:54.557Z,70.10
2018-02-11T15:00:23.426Z,70.20
2018-02-11T15:02:50.870Z,70.60
2018-02-11T15:05:18.335Z,70.30
2018-02-11T15:07:47.442Z,70.20
2018-02-11T15:10:14.967Z,70.50
2018-02-11T15:12:42.428Z,70.70
2018-02-11T15:15:09.906Z,70.50
2018-02-11T15:17:37.431Z,70.70
2018-02-11T15:20:04.917Z,70.70
2018-02-11T15:22:32.397Z,71.10
2018-02-11T15:24:59.902Z,70.90
2018-02-11T15:27:27.596Z,70.80
2018-02-11T15:29:55.574Z,70.20
2018-02-11T15:32:23.437Z,69.30
2018-02-11T15:34:50.901Z,68.90
2018-02-11T15:37:18.374Z,68.10
2018-02-11T15:39:46.113Z,67.50
2018-02-11T15:42:13.783Z,67.70
2018-02-11T15:44:41.773Z,67.50
2018-02-11T15:47:10.015Z,68.30
2018-02-11T15:49:37.477Z,68.20
2018-02-11T15:52:05.860Z,68.60
2018-02-11T15:54:33.928Z,68.40
2018-02-11T15:57:02.102Z,68.80
2018-02-11T15:59:29.564Z,67.00
2018-02-11T16:01:57.952Z,65.20
2018-02-11T16:04:26.197Z,65.30
2018-02-11T16:06:54.484Z,65.30
2018-02-11T16:09:21.942Z,65.20
2018-02-11T16:11:49.393Z,65.10
2018-02-11T16:14:17.064Z,65.30
2018-02-11T16:16:44.519Z,65.60
2018-02-11T16:19:11.981Z,66.30
2018-02-11T16:21:39.450Z,67.10
2018-02-11T16:24:07.174Z,67.80
2018-02-11T16:26:34.608Z,68.20
2018-02-11T16:29:02.824Z,68.60
2018-02-11T16:31:30.976Z,68.90
2018-02-11T16:33:58.513Z,69.10
2018-02-11T16:36:25.941Z,69.30
2018-02-11T16:38:54.193Z,69.90
2018-02-11T16:41:21.657Z,69.80
2018-02-11T16:43:50.413Z,70.00
2018-02-11T16:46:17.882Z,70.40
2018-02-11T16:48:45.316Z,70.50
2018-02-11T16:51:12.820Z,70.70
2018-02-11T16:53:40.618Z,70.90
2018-02-11T16:56:08.513Z,71.00
2018-02-11T16:58:35.971Z,71.10
2018-02-11T17:01:03.513Z,71.50
2018-02-11T17:03:30.978Z,71.30
2018-02-11T17:05:58.649Z,70.70
2018-02-11T17:08:26.176Z,70.20
2018-02-11T17:10:54.077Z,70.50
2018-02-11T17:13:21.520Z,69.70
2018-02-11T17:15:49.109Z,69.90
2018-02-11T17:18:16.549Z,69.10
2018-02-11T17:20:43.989Z,68.80
2018-02-11T17:23:11.505Z,68.50
2018-02-11T17:25:39.708Z,68.60
2018-02-11T17:28:07.729Z,68.60
2018-02-11T17:30:35.580Z,68.50
2018-02-11T17:33:03.452Z,68.50
2018-02-11T17:35:30.907Z,68.70
2018-02-11T17:37:58.384Z,68.90
2018-02-11T17:40:26.583Z,69.50
2018-02-11T17:42:54.055Z,69.50
2018-02-11T17:45:22.174Z,69.60
2018-02-11T17:47:49.897Z,69.80
2018-02-11T17:50:17.891Z,70.00
2018-02-11T17:52:45.360Z,70.20
2018-02-11T17:55:14.079Z,71.00
2018-02-11T17:57:41.483Z,70.40
2018-02-11T18:00:08.955Z,70.50
2018-02-11T18:02:36.981Z,70.50
2018-02-11T18:05:04.441Z,70.60
2018-02-11T18:07:32.031Z,70.50
2018-02-11T18:09:59.509Z,70.80
2018-02-11T18:12:26.963Z,70.80
2018-02-11T18:14:55.178Z,71.00
2018-02-11T18:17:22.709Z,70.90
2018-02-11T18:19:50.956Z,70.40
2018-02-11T18:22:18.404Z,70.40
2018-02-11T18:24:45.855Z,70.10
2018-02-11T18:27:13.400Z,69.70
2018-02-11T18:29:41.294Z,69.60
2018-02-11T18:32:09.320Z,69.60
2018-02-11T18:34:37.151Z,69.60
2018-02-11T18:37:04.632Z,69.70
2018-02-11T18:39:32.099Z,69.40
2018-02-11T18:41:59.574Z,69.30
2018-02-11T18:44:27.653Z,69.10
2018-02-11T18:46:55.165Z,69.20
2018-02-11T18:49:23.398Z,69.30
2018-02-11T18:51:50.876Z,69.20
2018-02-11T18:54:19.042Z,69.10
2018-02-11T18:56:46.509Z,69.10
2018-02-11T18:59:14.733Z,69.10
2018-02-11T19:01:44.274Z,69.10
2018-02-11T19:04:11.708Z,69.30
2018-02-11T19:06:39.372Z,69.40
2018-02-11T19:09:07.345Z,69.40
2018-02-11T19:11:35.004Z,69.50
2018-02-11T19:14:02.485Z,69.40
2018-02-11T19:16:29.961Z,69.50
2018-02-11T19:18:58.202Z,69.30
2018-02-11T19:21:25.653Z,69.20
2018-02-11T19:23:53.176Z,69.40
2018-02-11T19:26:20.724Z,69.60
2018-02-11T19:28:48.717Z,69.80
2018-02-11T19:31:16.622Z,69.90
2018-02-11T19:33:44.146Z,70.00
2018-02-11T19:36:11.620Z,70.20
2018-02-11T19:38:39.088Z,70.20
2018-02-11T19:41:07.068Z,70.20
2018-02-11T19:43:35.777Z,70.60
2018-02-11T19:46:04.010Z,70.70
2018-02-11T19:48:31.963Z,70.70
2018-02-11T19:50:59.446Z,70.50
2018-02-11T19:53:27.200Z,70.50
2018-02-11T19:55:54.662Z,70.60
2018-02-11T19:58:22.216Z,70.60
2018-02-11T20:00:49.777Z,70.50
2018-02-11T20:03:17.233Z,70.50
2018-02-11T20:05:44.686Z,70.50
2018-02-11T20:08:12.160Z,70.80
2018-02-11T20:10:39.631Z,71.10
2018-02-11T20:13:08.204Z,71.20
2018-02-11T20:15:36.457Z,71.50
2018-02-11T20:18:03.887Z,71.10
2018-02-11T20:20:31.395Z,71.30
2018-02-11T20:22:59.605Z,72.00
2018-02-11T20:25:27.084Z,71.50
2018-02-11T20:27:54.516Z,71.40
2018-02-11T20:30:22.938Z,71.50
2018-02-11T20:32:50.400Z,71.60
2018-02-11T20:35:17.878Z,71.80
2018-02-11T20:37:46.492Z,71.90
2018-02-11T20:40:13.966Z,71.80
2018-02-11T20:42:41.953Z,72.20
2018-02-11T20:45:09.741Z,72.10
2018-02-11T20:47:37.227Z,72.00
2018-02-11T20:50:04.660Z,72.30
2018-02-11T20:52:32.892Z,72.60
2018-02-11T20:55:00.703Z,72.60
2018-02-11T20:57:28.933Z,72.70
2018-02-11T20:59:56.599Z,72.70
2018-02-11T21:02:24.041Z,72.80
2018-02-11T21:04:51.588Z,72.80
2018-02-11T21:07:19.187Z,72.80
2018-02-11T21:09:46.638Z,72.70
2018-02-11T21:12:14.112Z,72.50
2018-02-11T21:14:41.572Z,72.60
2018-02-11T21:17:09.033Z,73.40
2018-02-11T21:19:37.271Z,74.00
2018-02-11T21:22:04.704Z,73.90
2018-02-11T21:24:32.296Z,74.20
2018-02-11T21:26:59.756Z,74.70
2018-02-11T21:29:27.758Z,75.20
2018-02-11T21:31:56.514Z,75.70
2018-02-11T21:34:24.904Z,76.00
2018-02-11T21:36:52.367Z,76.40
2018-02-11T21:39:20.534Z,76.50
2018-02-11T21:41:47.981Z,76.70
2018-02-11T21:44:16.857Z,77.10
2018-02-11T21:46:44.723Z,77.50
2018-02-11T21:49:12.218Z,77.50
2018-02-11T21:51:39.640Z,77.50
2018-02-11T21:54:07.913Z,77.50
2018-02-11T21:56:35.361Z,77.60
2018-02-11T21:59:03.240Z,77.90
2018-02-11T22:01:30.672Z,77.90
2018-02-11T22:03:58.216Z,78.00
2018-02-11T22:06:26.417Z,78.20
2018-02-11T22:08:53.870Z,78.10
2018-02-11T22:11:21.340Z,78.10
2018-02-11T22:13:48.779Z,78.30
2018-02-11T22:16:16.324Z,78.60
2018-02-11T22:18:43.904Z,79.00
2018-02-11T22:21:11.376Z,79.20
2018-02-11T22:23:38.851Z,79.30
2018-02-11T22:26:07.524Z,80.70
2018-02-11T22:28:35.516Z,79.90
2018-02-11T22:31:04.180Z,80.30
2018-02-11T22:33:32.426Z,80.10
2018-02-11T22:35:59.888Z,80.10
2018-02-11T22:38:27.339Z,80.50
2018-02-11T22:40:54.879Z,80.70
2018-02-11T22:43:22.780Z,80.80
2018-02-11T22:45:50.279Z,80.80
2018-02-11T22:48:17.712Z,81.20
2018-02-11T22:50:45.185Z,81.20
2018-02-11T22:53:12.923Z,81.20
2018-02-11T22:55:40.391Z,81.00
2018-02-11T22:58:08.610Z,81.40
2018-02-11T23:00:36.883Z,81.10
2018-02-11T23:03:04.324Z,81.40
2018-02-11T23:05:31.839Z,81.30
2018-02-11T23:07:59.316Z,81.10
2018-02-11T23:10:28.191Z,81.80
2018-02-11T23:12:55.841Z,81.70
2018-02-11T23:15:23.283Z,81.70
2018-02-11T23:17:50.828Z,81.90
2018-02-11T23:20:18.821Z,82.00
2018-02-11T23:22:46.296Z,81.70
2018-02-11T23:25:13.736Z,81.30
2018-02-11T23:27:41.740Z,81.10
2018-02-11T23:30:11.514Z,80.50
2018-02-11T23:32:38.989Z,80.60
2018-02-11T23:35:06.429Z,80.30
2018-02-11T23:37:33.907Z,80.50
2018-02-11T23:40:02.140Z,80.20
2018-02-11T23:42:29.624Z,80.10
2018-02-11T23:44:57.780Z,80.10
2018-02-11T23:47:25.444Z,80.00
2018-02-11T23:49:52.913Z,79.80
2018-02-11T23:52:20.387Z,79.60
2018-02-11T23:54:48.963Z,80.00
2018-02-11T23:57:17.188Z,79.70
2018-02-11T23:59:44.623Z,80.20
